sensor_id;sensor_type;location;lat;lon;timestamp;P1;durP1;ratioP1;P2;durP2;ratioP2
37288;SDS011;23174;49.462;11.000;2023-07-30T00:01:34;1.55;;;1.45;;
37288;SDS011;23174;49.462;11.000;2023-07-30T00:03:35;2.08;;;1.58;;
37288;SDS011;23174;49.462;11.000;2023-07-30T00:05:35;2.45;;;1.50;;
37288;SDS011;23174;49.462;11.000;2023-07-30T00:07:36;1.75;;;1.55;;
37288;SDS011;23174;49.462;11.000;2023-07-30T00:09:36;2.25;;;1.45;;
37288;SDS011;23174;49.462;11.000;2023-07-30T00:11:37;2.05;;;1.63;;
37288;SDS011;23174;49.462;11.000;2023-07-30T00:13:38;1.75;;;1.63;;
37288;SDS011;23174;49.462;11.000;2023-07-30T00:15:38;1.70;;;1.45;;
37288;SDS011;23174;49.462;11.000;2023-07-30T00:17:39;1.92;;;1.58;;
37288;SDS011;23174;49.462;11.000;2023-07-30T00:19:39;1.27;;;1.15;;
37288;SDS011;23174;49.462;11.000;2023-07-30T00:21:40;1.70;;;1.60;;
37288;SDS011;23174;49.462;11.000;2023-07-30T00:23:40;5.03;;;1.40;;
37288;SDS011;23174;49.462;11.000;2023-07-30T00:25:41;1.63;;;1.42;;
37288;SDS011;23174;49.462;11.000;2023-07-30T00:27:41;1.40;;;1.30;;
37288;SDS011;23174;49.462;11.000;2023-07-30T00:29:42;1.45;;;1.35;;
37288;SDS011;23174;49.462;11.000;2023-07-30T00:31:42;2.00;;;1.80;;
37288;SDS011;23174;49.462;11.000;2023-07-30T00:33:43;2.50;;;1.67;;
37288;SDS011;23174;49.462;11.000;2023-07-30T00:35:43;1.55;;;1.45;;
37288;SDS011;23174;49.462;11.000;2023-07-30T00:37:43;2.10;;;1.70;;
37288;SDS011;23174;49.462;11.000;2023-07-30T00:39:44;1.70;;;1.60;;
37288;SDS011;23174;49.462;11.000;2023-07-30T00:41:44;2.45;;;1.85;;
37288;SDS011;23174;49.462;11.000;2023-07-30T00:43:45;1.58;;;1.48;;
37288;SDS011;23174;49.462;11.000;2023-07-30T00:45:46;1.90;;;1.38;;
37288;SDS011;23174;49.462;11.000;2023-07-30T00:47:47;2.13;;;1.60;;
37288;SDS011;23174;49.462;11.000;2023-07-30T00:49:48;1.90;;;1.80;;
37288;SDS011;23174;49.462;11.000;2023-07-30T00:51:49;2.28;;;1.88;;
37288;SDS011;23174;49.462;11.000;2023-07-30T00:53:50;1.80;;;1.70;;
37288;SDS011;23174;49.462;11.000;2023-07-30T00:55:50;2.28;;;1.60;;
37288;SDS011;23174;49.462;11.000;2023-07-30T00:57:51;2.28;;;1.60;;
37288;SDS011;23174;49.462;11.000;2023-07-30T00:59:51;1.67;;;1.52;;
37288;SDS011;23174;49.462;11.000;2023-07-30T01:01:53;1.40;;;1.30;;
37288;SDS011;23174;49.462;11.000;2023-07-30T01:03:53;1.80;;;1.70;;
37288;SDS011;23174;49.462;11.000;2023-07-30T01:05:54;2.65;;;1.45;;
37288;SDS011;23174;49.462;11.000;2023-07-30T01:07:54;3.92;;;1.40;;
37288;SDS011;23174;49.462;11.000;2023-07-30T01:09:55;2.40;;;1.60;;
37288;SDS011;23174;49.462;11.000;2023-07-30T01:11:56;3.65;;;1.83;;
37288;SDS011;23174;49.462;11.000;2023-07-30T01:13:57;1.92;;;1.75;;
37288;SDS011;23174;49.462;11.000;2023-07-30T01:15:58;3.25;;;1.38;;
37288;SDS011;23174;49.462;11.000;2023-07-30T01:17:58;5.05;;;1.98;;
37288;SDS011;23174;49.462;11.000;2023-07-30T01:19:59;1.23;;;1.13;;
37288;SDS011;23174;49.462;11.000;2023-07-30T01:21:59;2.42;;;2.13;;
37288;SDS011;23174;49.462;11.000;2023-07-30T01:24:00;2.58;;;1.58;;
37288;SDS011;23174;49.462;11.000;2023-07-30T01:26:03;1.80;;;1.55;;
37288;SDS011;23174;49.462;11.000;2023-07-30T01:28:08;2.13;;;1.75;;
37288;SDS011;23174;49.462;11.000;2023-07-30T01:30:18;3.45;;;1.70;;
37288;SDS011;23174;49.462;11.000;2023-07-30T01:32:26;4.00;;;1.80;;
37288;SDS011;23174;49.462;11.000;2023-07-30T01:34:28;1.90;;;1.70;;
37288;SDS011;23174;49.462;11.000;2023-07-30T01:36:31;5.40;;;2.25;;
37288;SDS011;23174;49.462;11.000;2023-07-30T01:38:33;3.03;;;1.90;;
37288;SDS011;23174;49.462;11.000;2023-07-30T01:40:34;1.70;;;1.60;;
37288;SDS011;23174;49.462;11.000;2023-07-30T01:42:34;1.95;;;1.85;;
37288;SDS011;23174;49.462;11.000;2023-07-30T01:44:35;6.03;;;2.10;;
37288;SDS011;23174;49.462;11.000;2023-07-30T01:46:35;2.30;;;1.98;;
37288;SDS011;23174;49.462;11.000;2023-07-30T01:48:36;1.90;;;1.70;;
37288;SDS011;23174;49.462;11.000;2023-07-30T01:50:36;3.17;;;2.05;;
37288;SDS011;23174;49.462;11.000;2023-07-30T01:52:37;2.08;;;1.88;;
37288;SDS011;23174;49.462;11.000;2023-07-30T01:54:37;1.92;;;1.83;;
37288;SDS011;23174;49.462;11.000;2023-07-30T01:56:38;2.17;;;1.80;;
37288;SDS011;23174;49.462;11.000;2023-07-30T01:58:39;2.97;;;1.77;;
37288;SDS011;23174;49.462;11.000;2023-07-30T02:00:40;3.78;;;2.03;;
37288;SDS011;23174;49.462;11.000;2023-07-30T02:02:41;3.13;;;1.95;;
37288;SDS011;23174;49.462;11.000;2023-07-30T02:04:41;1.92;;;1.70;;
37288;SDS011;23174;49.462;11.000;2023-07-30T02:06:41;2.30;;;1.83;;
37288;SDS011;23174;49.462;11.000;2023-07-30T02:08:42;1.88;;;1.75;;
37288;SDS011;23174;49.462;11.000;2023-07-30T02:10:42;2.42;;;1.95;;
37288;SDS011;23174;49.462;11.000;2023-07-30T02:12:43;2.20;;;2.03;;
37288;SDS011;23174;49.462;11.000;2023-07-30T02:14:43;3.17;;;1.92;;
37288;SDS011;23174;49.462;11.000;2023-07-30T02:16:44;1.88;;;1.77;;
37288;SDS011;23174;49.462;11.000;2023-07-30T02:18:44;4.82;;;2.35;;
37288;SDS011;23174;49.462;11.000;2023-07-30T02:20:45;3.45;;;1.88;;
37288;SDS011;23174;49.462;11.000;2023-07-30T02:22:45;1.67;;;1.38;;
37288;SDS011;23174;49.462;11.000;2023-07-30T02:24:46;1.77;;;1.67;;
37288;SDS011;23174;49.462;11.000;2023-07-30T02:26:46;2.00;;;1.80;;
37288;SDS011;23174;49.462;11.000;2023-07-30T02:28:48;2.28;;;1.85;;
37288;SDS011;23174;49.462;11.000;2023-07-30T02:30:49;5.88;;;1.98;;
37288;SDS011;23174;49.462;11.000;2023-07-30T02:32:49;2.15;;;1.65;;
37288;SDS011;23174;49.462;11.000;2023-07-30T02:34:50;2.30;;;2.20;;
37288;SDS011;23174;49.462;11.000;2023-07-30T02:36:50;2.25;;;1.77;;
37288;SDS011;23174;49.462;11.000;2023-07-30T02:38:51;2.00;;;1.80;;
37288;SDS011;23174;49.462;11.000;2023-07-30T02:40:51;2.00;;;1.90;;
37288;SDS011;23174;49.462;11.000;2023-07-30T02:42:52;4.50;;;1.67;;
37288;SDS011;23174;49.462;11.000;2023-07-30T02:44:52;3.67;;;2.00;;
37288;SDS011;23174;49.462;11.000;2023-07-30T02:46:52;1.90;;;1.80;;
37288;SDS011;23174;49.462;11.000;2023-07-30T02:48:53;2.28;;;1.90;;
37288;SDS011;23174;49.462;11.000;2023-07-30T02:50:53;3.33;;;1.80;;
37288;SDS011;23174;49.462;11.000;2023-07-30T02:52:54;4.35;;;2.10;;
37288;SDS011;23174;49.462;11.000;2023-07-30T02:54:54;4.25;;;1.95;;
37288;SDS011;23174;49.462;11.000;2023-07-30T02:56:55;2.13;;;1.70;;
37288;SDS011;23174;49.462;11.000;2023-07-30T02:58:56;3.75;;;2.30;;
37288;SDS011;23174;49.462;11.000;2023-07-30T03:01:07;1.75;;;1.65;;
37288;SDS011;23174;49.462;11.000;2023-07-30T03:03:08;3.95;;;2.38;;
37288;SDS011;23174;49.462;11.000;2023-07-30T03:05:08;2.85;;;2.05;;
37288;SDS011;23174;49.462;11.000;2023-07-30T03:07:09;1.85;;;1.73;;
37288;SDS011;23174;49.462;11.000;2023-07-30T03:09:10;3.28;;;1.85;;
37288;SDS011;23174;49.462;11.000;2023-07-30T03:11:10;2.05;;;1.95;;
37288;SDS011;23174;49.462;11.000;2023-07-30T03:13:10;3.83;;;1.65;;
37288;SDS011;23174;49.462;11.000;2023-07-30T03:15:11;2.90;;;1.95;;
37288;SDS011;23174;49.462;11.000;2023-07-30T03:17:12;2.15;;;1.90;;
37288;SDS011;23174;49.462;11.000;2023-07-30T03:19:12;2.50;;;2.10;;
37288;SDS011;23174;49.462;11.000;2023-07-30T03:21:13;2.47;;;1.92;;
37288;SDS011;23174;49.462;11.000;2023-07-30T03:23:13;2.30;;;2.10;;
37288;SDS011;23174;49.462;11.000;2023-07-30T03:25:14;3.53;;;1.73;;
37288;SDS011;23174;49.462;11.000;2023-07-30T03:27:14;1.52;;;1.42;;
37288;SDS011;23174;49.462;11.000;2023-07-30T03:29:15;2.63;;;1.90;;
37288;SDS011;23174;49.462;11.000;2023-07-30T03:31:16;1.80;;;1.70;;
37288;SDS011;23174;49.462;11.000;2023-07-30T03:33:16;2.10;;;2.00;;
37288;SDS011;23174;49.462;11.000;2023-07-30T03:35:17;1.63;;;1.50;;
37288;SDS011;23174;49.462;11.000;2023-07-30T03:37:17;2.55;;;1.88;;
37288;SDS011;23174;49.462;11.000;2023-07-30T03:39:18;2.10;;;2.00;;
37288;SDS011;23174;49.462;11.000;2023-07-30T03:41:18;1.85;;;1.75;;
37288;SDS011;23174;49.462;11.000;2023-07-30T03:43:18;1.98;;;1.85;;
37288;SDS011;23174;49.462;11.000;2023-07-30T03:45:19;2.17;;;1.98;;
37288;SDS011;23174;49.462;11.000;2023-07-30T03:47:19;3.60;;;1.80;;
37288;SDS011;23174;49.462;11.000;2023-07-30T03:49:20;2.00;;;1.90;;
37288;SDS011;23174;49.462;11.000;2023-07-30T03:51:20;2.58;;;2.03;;
37288;SDS011;23174;49.462;11.000;2023-07-30T03:53:22;2.85;;;2.25;;
37288;SDS011;23174;49.462;11.000;2023-07-30T03:55:22;2.47;;;2.28;;
37288;SDS011;23174;49.462;11.000;2023-07-30T03:57:23;3.35;;;1.92;;
37288;SDS011;23174;49.462;11.000;2023-07-30T03:59:23;3.45;;;1.80;;
37288;SDS011;23174;49.462;11.000;2023-07-30T04:01:24;2.30;;;2.10;;
37288;SDS011;23174;49.462;11.000;2023-07-30T04:03:24;2.00;;;1.73;;
37288;SDS011;23174;49.462;11.000;2023-07-30T04:05:25;3.70;;;1.95;;
37288;SDS011;23174;49.462;11.000;2023-07-30T04:07:25;3.55;;;2.20;;
37288;SDS011;23174;49.462;11.000;2023-07-30T04:09:26;2.15;;;1.95;;
37288;SDS011;23174;49.462;11.000;2023-07-30T04:11:26;3.17;;;2.30;;
37288;SDS011;23174;49.462;11.000;2023-07-30T04:13:27;2.67;;;1.90;;
37288;SDS011;23174;49.462;11.000;2023-07-30T04:15:27;4.03;;;1.75;;
37288;SDS011;23174;49.462;11.000;2023-07-30T04:17:28;2.15;;;1.95;;
37288;SDS011;23174;49.462;11.000;2023-07-30T04:19:28;1.92;;;1.83;;
37288;SDS011;23174;49.462;11.000;2023-07-30T04:21:29;3.35;;;1.95;;
37288;SDS011;23174;49.462;11.000;2023-07-30T04:23:29;1.73;;;1.63;;
37288;SDS011;23174;49.462;11.000;2023-07-30T04:25:30;2.08;;;1.88;;
37288;SDS011;23174;49.462;11.000;2023-07-30T04:27:30;2.20;;;2.03;;
37288;SDS011;23174;49.462;11.000;2023-07-30T04:29:30;2.08;;;1.73;;
37288;SDS011;23174;49.462;11.000;2023-07-30T04:31:31;2.10;;;2.00;;
37288;SDS011;23174;49.462;11.000;2023-07-30T04:33:32;4.05;;;1.80;;
37288;SDS011;23174;49.462;11.000;2023-07-30T04:35:33;2.10;;;1.60;;
37288;SDS011;23174;49.462;11.000;2023-07-30T04:37:33;3.15;;;2.10;;
37288;SDS011;23174;49.462;11.000;2023-07-30T04:39:34;2.28;;;2.08;;
37288;SDS011;23174;49.462;11.000;2023-07-30T04:41:35;2.38;;;1.75;;
37288;SDS011;23174;49.462;11.000;2023-07-30T04:43:35;2.40;;;1.90;;
37288;SDS011;23174;49.462;11.000;2023-07-30T04:45:36;1.95;;;1.85;;
37288;SDS011;23174;49.462;11.000;2023-07-30T04:47:36;1.83;;;1.70;;
37288;SDS011;23174;49.462;11.000;2023-07-30T04:49:37;3.47;;;2.47;;
37288;SDS011;23174;49.462;11.000;2023-07-30T04:51:40;2.25;;;2.05;;
37288;SDS011;23174;49.462;11.000;2023-07-30T04:53:40;2.78;;;1.95;;
37288;SDS011;23174;49.462;11.000;2023-07-30T04:55:41;2.70;;;2.50;;
37288;SDS011;23174;49.462;11.000;2023-07-30T04:57:41;2.78;;;2.05;;
37288;SDS011;23174;49.462;11.000;2023-07-30T04:59:42;1.88;;;1.77;;
37288;SDS011;23174;49.462;11.000;2023-07-30T05:01:42;2.30;;;2.10;;
37288;SDS011;23174;49.462;11.000;2023-07-30T05:03:43;2.55;;;1.98;;
37288;SDS011;23174;49.462;11.000;2023-07-30T05:05:43;2.40;;;2.20;;
37288;SDS011;23174;49.462;11.000;2023-07-30T05:07:44;1.92;;;1.80;;
37288;SDS011;23174;49.462;11.000;2023-07-30T05:09:44;1.85;;;1.75;;
37288;SDS011;23174;49.462;11.000;2023-07-30T05:11:45;2.35;;;1.75;;
37288;SDS011;23174;49.462;11.000;2023-07-30T05:13:45;1.92;;;1.83;;
37288;SDS011;23174;49.462;11.000;2023-07-30T05:15:46;2.30;;;2.10;;
37288;SDS011;23174;49.462;11.000;2023-07-30T05:17:46;3.28;;;1.80;;
37288;SDS011;23174;49.462;11.000;2023-07-30T05:19:47;2.00;;;1.90;;
37288;SDS011;23174;49.462;11.000;2023-07-30T05:21:47;1.90;;;1.77;;
37288;SDS011;23174;49.462;11.000;2023-07-30T05:23:48;1.30;;;1.20;;
37288;SDS011;23174;49.462;11.000;2023-07-30T05:25:48;1.90;;;1.52;;
37288;SDS011;23174;49.462;11.000;2023-07-30T05:27:49;2.20;;;2.00;;
37288;SDS011;23174;49.462;11.000;2023-07-30T05:29:49;2.00;;;1.88;;
37288;SDS011;23174;49.462;11.000;2023-07-30T05:31:50;1.92;;;1.75;;
37288;SDS011;23174;49.462;11.000;2023-07-30T05:33:50;1.73;;;1.63;;
37288;SDS011;23174;49.462;11.000;2023-07-30T05:35:51;1.88;;;1.73;;
37288;SDS011;23174;49.462;11.000;2023-07-30T05:37:51;3.45;;;2.10;;
37288;SDS011;23174;49.462;11.000;2023-07-30T05:39:52;2.50;;;1.80;;
37288;SDS011;23174;49.462;11.000;2023-07-30T05:41:52;1.48;;;1.38;;
37288;SDS011;23174;49.462;11.000;2023-07-30T05:43:53;1.60;;;1.50;;
37288;SDS011;23174;49.462;11.000;2023-07-30T05:45:53;1.73;;;1.63;;
37288;SDS011;23174;49.462;11.000;2023-07-30T05:47:54;1.40;;;1.30;;
37288;SDS011;23174;49.462;11.000;2023-07-30T05:49:54;1.65;;;1.50;;
37288;SDS011;23174;49.462;11.000;2023-07-30T05:51:55;2.08;;;1.55;;
37288;SDS011;23174;49.462;11.000;2023-07-30T05:53:55;1.98;;;1.60;;
37288;SDS011;23174;49.462;11.000;2023-07-30T05:55:56;1.83;;;1.73;;
37288;SDS011;23174;49.462;11.000;2023-07-30T05:57:56;3.45;;;1.52;;
37288;SDS011;23174;49.462;11.000;2023-07-30T05:59:58;1.60;;;1.50;;
37288;SDS011;23174;49.462;11.000;2023-07-30T06:02:01;1.88;;;1.77;;
37288;SDS011;23174;49.462;11.000;2023-07-30T06:04:03;1.40;;;1.30;;
37288;SDS011;23174;49.462;11.000;2023-07-30T06:06:03;1.52;;;1.42;;
37288;SDS011;23174;49.462;11.000;2023-07-30T06:08:04;1.65;;;1.55;;
37288;SDS011;23174;49.462;11.000;2023-07-30T06:10:04;2.95;;;1.42;;
37288;SDS011;23174;49.462;11.000;2023-07-30T06:12:05;1.27;;;1.17;;
37288;SDS011;23174;49.462;11.000;2023-07-30T06:14:06;1.50;;;1.35;;
37288;SDS011;23174;49.462;11.000;2023-07-30T06:16:06;1.80;;;1.15;;
37288;SDS011;23174;49.462;11.000;2023-07-30T06:18:07;1.70;;;1.60;;
37288;SDS011;23174;49.462;11.000;2023-07-30T06:20:07;1.60;;;1.50;;
37288;SDS011;23174;49.462;11.000;2023-07-30T06:22:08;2.03;;;1.40;;
37288;SDS011;23174;49.462;11.000;2023-07-30T06:24:09;1.58;;;1.48;;
37288;SDS011;23174;49.462;11.000;2023-07-30T06:26:09;2.47;;;1.20;;
37288;SDS011;23174;49.462;11.000;2023-07-30T06:28:10;1.48;;;1.38;;
37288;SDS011;23174;49.462;11.000;2023-07-30T06:30:11;1.58;;;1.20;;
37288;SDS011;23174;49.462;11.000;2023-07-30T06:32:11;2.85;;;1.60;;
37288;SDS011;23174;49.462;11.000;2023-07-30T06:34:12;1.70;;;1.60;;
37288;SDS011;23174;49.462;11.000;2023-07-30T06:36:12;1.50;;;1.40;;
37288;SDS011;23174;49.462;11.000;2023-07-30T06:38:13;1.42;;;1.30;;
37288;SDS011;23174;49.462;11.000;2023-07-30T06:40:13;1.48;;;1.30;;
37288;SDS011;23174;49.462;11.000;2023-07-30T06:42:14;2.63;;;1.30;;
37288;SDS011;23174;49.462;11.000;2023-07-30T06:44:14;1.42;;;1.33;;
37288;SDS011;23174;49.462;11.000;2023-07-30T06:46:15;3.95;;;1.23;;
37288;SDS011;23174;49.462;11.000;2023-07-30T06:48:16;1.65;;;1.00;;
37288;SDS011;23174;49.462;11.000;2023-07-30T06:50:16;1.48;;;1.30;;
37288;SDS011;23174;49.462;11.000;2023-07-30T06:52:17;1.40;;;1.30;;
37288;SDS011;23174;49.462;11.000;2023-07-30T06:54:17;1.45;;;1.27;;
37288;SDS011;23174;49.462;11.000;2023-07-30T06:56:18;2.63;;;1.08;;
37288;SDS011;23174;49.462;11.000;2023-07-30T06:58:18;0.93;;;0.93;;
37288;SDS011;23174;49.462;11.000;2023-07-30T07:00:19;1.02;;;1.02;;
37288;SDS011;23174;49.462;11.000;2023-07-30T07:02:21;1.30;;;1.20;;
37288;SDS011;23174;49.462;11.000;2023-07-30T07:04:22;1.70;;;1.10;;
37288;SDS011;23174;49.462;11.000;2023-07-30T07:06:22;1.20;;;1.17;;
37288;SDS011;23174;49.462;11.000;2023-07-30T07:08:23;1.83;;;1.42;;
37288;SDS011;23174;49.462;11.000;2023-07-30T07:10:23;1.05;;;1.05;;
37288;SDS011;23174;49.462;11.000;2023-07-30T07:12:24;2.72;;;1.40;;
37288;SDS011;23174;49.462;11.000;2023-07-30T07:14:24;1.40;;;1.17;;
37288;SDS011;23174;49.462;11.000;2023-07-30T07:16:25;2.35;;;1.25;;
37288;SDS011;23174;49.462;11.000;2023-07-30T07:18:25;1.35;;;1.25;;
37288;SDS011;23174;49.462;11.000;2023-07-30T07:20:26;1.00;;;1.00;;
37288;SDS011;23174;49.462;11.000;2023-07-30T07:22:27;1.00;;;1.00;;
37288;SDS011;23174;49.462;11.000;2023-07-30T07:24:27;4.20;;;1.23;;
37288;SDS011;23174;49.462;11.000;2023-07-30T07:26:28;1.40;;;1.30;;
37288;SDS011;23174;49.462;11.000;2023-07-30T07:28:28;1.55;;;1.17;;
37288;SDS011;23174;49.462;11.000;2023-07-30T07:30:29;1.45;;;1.35;;
37288;SDS011;23174;49.462;11.000;2023-07-30T07:32:29;1.40;;;1.15;;
37288;SDS011;23174;49.462;11.000;2023-07-30T07:34:30;1.40;;;1.30;;
37288;SDS011;23174;49.462;11.000;2023-07-30T07:36:30;1.23;;;1.23;;
37288;SDS011;23174;49.462;11.000;2023-07-30T07:38:31;1.30;;;1.20;;
37288;SDS011;23174;49.462;11.000;2023-07-30T07:40:36;1.88;;;1.40;;
37288;SDS011;23174;49.462;11.000;2023-07-30T07:42:40;1.17;;;1.08;;
37288;SDS011;23174;49.462;11.000;2023-07-30T07:44:41;1.77;;;1.48;;
37288;SDS011;23174;49.462;11.000;2023-07-30T07:46:43;2.25;;;1.48;;
37288;SDS011;23174;49.462;11.000;2023-07-30T07:48:44;1.20;;;1.10;;
37288;SDS011;23174;49.462;11.000;2023-07-30T07:50:45;1.85;;;1.30;;
37288;SDS011;23174;49.462;11.000;2023-07-30T07:52:45;1.38;;;1.25;;
37288;SDS011;23174;49.462;11.000;2023-07-30T07:54:46;1.30;;;1.20;;
37288;SDS011;23174;49.462;11.000;2023-07-30T07:56:47;1.40;;;1.30;;
37288;SDS011;23174;49.462;11.000;2023-07-30T07:58:47;1.08;;;1.05;;
37288;SDS011;23174;49.462;11.000;2023-07-30T08:00:48;1.60;;;1.08;;
37288;SDS011;23174;49.462;11.000;2023-07-30T08:02:48;1.67;;;1.10;;
37288;SDS011;23174;49.462;11.000;2023-07-30T08:04:49;2.38;;;1.40;;
37288;SDS011;23174;49.462;11.000;2023-07-30T08:06:49;1.15;;;1.05;;
37288;SDS011;23174;49.462;11.000;2023-07-30T08:08:50;0.95;;;0.95;;
37288;SDS011;23174;49.462;11.000;2023-07-30T08:10:50;2.03;;;1.60;;
37288;SDS011;23174;49.462;11.000;2023-07-30T08:12:51;1.33;;;1.10;;
37288;SDS011;23174;49.462;11.000;2023-07-30T08:14:52;1.30;;;1.20;;
37288;SDS011;23174;49.462;11.000;2023-07-30T08:16:52;1.20;;;1.20;;
37288;SDS011;23174;49.462;11.000;2023-07-30T08:18:53;1.40;;;1.20;;
37288;SDS011;23174;49.462;11.000;2023-07-30T08:20:54;1.20;;;1.10;;
37288;SDS011;23174;49.462;11.000;2023-07-30T08:22:55;1.10;;;0.98;;
37288;SDS011;23174;49.462;11.000;2023-07-30T08:24:55;2.00;;;1.33;;
37288;SDS011;23174;49.462;11.000;2023-07-30T08:26:56;4.78;;;1.33;;
37288;SDS011;23174;49.462;11.000;2023-07-30T08:28:56;1.02;;;1.02;;
37288;SDS011;23174;49.462;11.000;2023-07-30T08:31:00;1.10;;;0.95;;
37288;SDS011;23174;49.462;11.000;2023-07-30T08:33:02;0.93;;;0.93;;
37288;SDS011;23174;49.462;11.000;2023-07-30T08:35:03;1.20;;;1.20;;
37288;SDS011;23174;49.462;11.000;2023-07-30T08:37:04;3.28;;;1.42;;
37288;SDS011;23174;49.462;11.000;2023-07-30T08:39:04;2.13;;;1.40;;
37288;SDS011;23174;49.462;11.000;2023-07-30T08:41:05;1.05;;;1.05;;
37288;SDS011;23174;49.462;11.000;2023-07-30T08:43:06;1.48;;;1.20;;
37288;SDS011;23174;49.462;11.000;2023-07-30T08:45:06;1.30;;;1.30;;
37288;SDS011;23174;49.462;11.000;2023-07-30T08:47:10;1.17;;;1.10;;
37288;SDS011;23174;49.462;11.000;2023-07-30T08:49:11;1.10;;;1.10;;
37288;SDS011;23174;49.462;11.000;2023-07-30T08:51:11;1.33;;;1.23;;
37288;SDS011;23174;49.462;11.000;2023-07-30T08:53:14;0.98;;;0.90;;
37288;SDS011;23174;49.462;11.000;2023-07-30T08:55:14;2.58;;;1.15;;
37288;SDS011;23174;49.462;11.000;2023-07-30T08:57:17;1.35;;;1.30;;
37288;SDS011;23174;49.462;11.000;2023-07-30T08:59:19;1.13;;;1.13;;
37288;SDS011;23174;49.462;11.000;2023-07-30T09:01:22;2.75;;;1.33;;
37288;SDS011;23174;49.462;11.000;2023-07-30T09:03:24;1.15;;;1.10;;
37288;SDS011;23174;49.462;11.000;2023-07-30T09:05:29;1.98;;;1.33;;
37288;SDS011;23174;49.462;11.000;2023-07-30T09:07:29;1.50;;;1.40;;
37288;SDS011;23174;49.462;11.000;2023-07-30T09:09:30;1.40;;;1.27;;
37288;SDS011;23174;49.462;11.000;2023-07-30T09:11:30;0.30;;;0.30;;
37288;SDS011;23174;49.462;11.000;2023-07-30T09:13:34;1.00;;;1.00;;
37288;SDS011;23174;49.462;11.000;2023-07-30T09:15:37;1.40;;;1.30;;
37288;SDS011;23174;49.462;11.000;2023-07-30T09:17:38;1.20;;;1.20;;
37288;SDS011;23174;49.462;11.000;2023-07-30T09:19:39;1.75;;;1.00;;
37288;SDS011;23174;49.462;11.000;2023-07-30T09:21:40;2.40;;;1.05;;
37288;SDS011;23174;49.462;11.000;2023-07-30T09:23:44;0.80;;;0.77;;
37288;SDS011;23174;49.462;11.000;2023-07-30T09:25:47;2.72;;;1.67;;
37288;SDS011;23174;49.462;11.000;2023-07-30T09:27:52;1.85;;;1.00;;
37288;SDS011;23174;49.462;11.000;2023-07-30T09:29:53;1.58;;;1.20;;
37288;SDS011;23174;49.462;11.000;2023-07-30T09:31:57;1.15;;;1.13;;
37288;SDS011;23174;49.462;11.000;2023-07-30T09:33:58;0.93;;;0.93;;
37288;SDS011;23174;49.462;11.000;2023-07-30T09:36:01;0.65;;;0.65;;
37288;SDS011;23174;49.462;11.000;2023-07-30T09:38:03;1.85;;;1.08;;
37288;SDS011;23174;49.462;11.000;2023-07-30T09:40:07;2.22;;;0.73;;
37288;SDS011;23174;49.462;11.000;2023-07-30T09:42:09;0.82;;;0.80;;
37288;SDS011;23174;49.462;11.000;2023-07-30T09:44:10;0.75;;;0.75;;
37288;SDS011;23174;49.462;11.000;2023-07-30T09:46:10;1.95;;;1.00;;
37288;SDS011;23174;49.462;11.000;2023-07-30T09:48:11;0.80;;;0.80;;
37288;SDS011;23174;49.462;11.000;2023-07-30T09:50:12;0.50;;;0.50;;
37288;SDS011;23174;49.462;11.000;2023-07-30T09:52:13;0.80;;;0.80;;
37288;SDS011;23174;49.462;11.000;2023-07-30T09:54:15;0.77;;;0.70;;
37288;SDS011;23174;49.462;11.000;2023-07-30T09:56:16;0.77;;;0.77;;
37288;SDS011;23174;49.462;11.000;2023-07-30T09:58:16;0.60;;;0.60;;
37288;SDS011;23174;49.462;11.000;2023-07-30T10:00:17;2.05;;;1.02;;
37288;SDS011;23174;49.462;11.000;2023-07-30T10:02:17;0.63;;;0.60;;
37288;SDS011;23174;49.462;11.000;2023-07-30T10:04:19;1.15;;;1.00;;
37288;SDS011;23174;49.462;11.000;2023-07-30T10:06:21;0.80;;;0.80;;
37288;SDS011;23174;49.462;11.000;2023-07-30T10:08:24;1.08;;;1.05;;
37288;SDS011;23174;49.462;11.000;2023-07-30T10:10:27;0.88;;;0.80;;
37288;SDS011;23174;49.462;11.000;2023-07-30T10:12:29;1.13;;;1.00;;
37288;SDS011;23174;49.462;11.000;2023-07-30T10:14:32;1.10;;;0.85;;
37288;SDS011;23174;49.462;11.000;2023-07-30T10:16:33;0.88;;;0.88;;
37288;SDS011;23174;49.462;11.000;2023-07-30T10:18:40;0.70;;;0.70;;
37288;SDS011;23174;49.462;11.000;2023-07-30T10:20:45;0.90;;;0.90;;
37288;SDS011;23174;49.462;11.000;2023-07-30T10:22:54;0.82;;;0.82;;
37288;SDS011;23174;49.462;11.000;2023-07-30T10:25:00;2.10;;;0.82;;
37288;SDS011;23174;49.462;11.000;2023-07-30T10:27:05;1.60;;;1.08;;
37288;SDS011;23174;49.462;11.000;2023-07-30T10:29:09;2.13;;;1.10;;
37288;SDS011;23174;49.462;11.000;2023-07-30T10:31:10;0.85;;;0.70;;
37288;SDS011;23174;49.462;11.000;2023-07-30T10:33:14;2.50;;;1.30;;
37288;SDS011;23174;49.462;11.000;2023-07-30T10:35:34;2.13;;;1.58;;
37288;SDS011;23174;49.462;11.000;2023-07-30T10:37:44;2.92;;;1.45;;
37288;SDS011;23174;49.462;11.000;2023-07-30T10:39:49;1.17;;;0.90;;
37288;SDS011;23174;49.462;11.000;2023-07-30T10:41:51;0.95;;;0.95;;
37288;SDS011;23174;49.462;11.000;2023-07-30T10:43:54;1.88;;;0.80;;
37288;SDS011;23174;49.462;11.000;2023-07-30T10:45:54;0.77;;;0.77;;
37288;SDS011;23174;49.462;11.000;2023-07-30T10:48:03;1.23;;;1.10;;
37288;SDS011;23174;49.462;11.000;2023-07-30T10:50:04;1.33;;;0.90;;
37288;SDS011;23174;49.462;11.000;2023-07-30T10:52:05;1.25;;;1.10;;
37288;SDS011;23174;49.462;11.000;2023-07-30T10:54:06;1.20;;;1.10;;
37288;SDS011;23174;49.462;11.000;2023-07-30T10:56:08;2.42;;;1.08;;
37288;SDS011;23174;49.462;11.000;2023-07-30T10:58:09;0.82;;;0.80;;
37288;SDS011;23174;49.462;11.000;2023-07-30T11:00:10;1.02;;;1.02;;
37288;SDS011;23174;49.462;11.000;2023-07-30T11:02:11;1.15;;;0.93;;
37288;SDS011;23174;49.462;11.000;2023-07-30T11:04:17;1.98;;;1.15;;
37288;SDS011;23174;49.462;11.000;2023-07-30T11:06:25;0.80;;;0.77;;
37288;SDS011;23174;49.462;11.000;2023-07-30T11:08:33;0.77;;;0.77;;
37288;SDS011;23174;49.462;11.000;2023-07-30T11:10:41;0.80;;;0.80;;
37288;SDS011;23174;49.462;11.000;2023-07-30T11:12:47;1.13;;;1.02;;
37288;SDS011;23174;49.462;11.000;2023-07-30T11:14:49;0.90;;;0.90;;
37288;SDS011;23174;49.462;11.000;2023-07-30T11:16:58;1.17;;;1.05;;
37288;SDS011;23174;49.462;11.000;2023-07-30T11:18:59;0.80;;;0.80;;
37288;SDS011;23174;49.462;11.000;2023-07-30T11:21:06;0.85;;;0.85;;
37288;SDS011;23174;49.462;11.000;2023-07-30T11:23:18;0.60;;;0.60;;
37288;SDS011;23174;49.462;11.000;2023-07-30T11:25:19;0.70;;;0.70;;
37288;SDS011;23174;49.462;11.000;2023-07-30T11:27:20;0.73;;;0.73;;
37288;SDS011;23174;49.462;11.000;2023-07-30T11:29:20;1.02;;;0.98;;
37288;SDS011;23174;49.462;11.000;2023-07-30T11:31:21;0.93;;;0.88;;
37288;SDS011;23174;49.462;11.000;2023-07-30T11:33:22;1.58;;;0.68;;
37288;SDS011;23174;49.462;11.000;2023-07-30T11:35:22;0.88;;;0.88;;
37288;SDS011;23174;49.462;11.000;2023-07-30T11:37:23;1.23;;;1.15;;
37288;SDS011;23174;49.462;11.000;2023-07-30T11:39:24;1.00;;;1.00;;
37288;SDS011;23174;49.462;11.000;2023-07-30T11:41:25;0.93;;;0.93;;
37288;SDS011;23174;49.462;11.000;2023-07-30T11:43:26;1.02;;;0.88;;
37288;SDS011;23174;49.462;11.000;2023-07-30T11:45:26;0.80;;;0.80;;
37288;SDS011;23174;49.462;11.000;2023-07-30T11:47:27;0.43;;;0.43;;
37288;SDS011;23174;49.462;11.000;2023-07-30T11:49:28;1.65;;;1.30;;
37288;SDS011;23174;49.462;11.000;2023-07-30T11:51:29;1.10;;;0.88;;
37288;SDS011;23174;49.462;11.000;2023-07-30T11:56:06;1.88;;;1.00;;
37288;SDS011;23174;49.462;11.000;2023-07-30T11:58:07;0.90;;;0.90;;
37288;SDS011;23174;49.462;11.000;2023-07-30T12:00:09;1.00;;;0.88;;
37288;SDS011;23174;49.462;11.000;2023-07-30T12:02:16;1.33;;;0.90;;